createdAt,value
2022-12-01T00:00:23.550Z,8.05
2022-12-01T00:05:25.057Z,6.75
2022-12-01T00:10:26.815Z,8.55
2022-12-01T00:15:31.011Z,6.05
2022-12-01T00:20:35.543Z,6.30
2022-12-01T00:25:37.054Z,6.38
2022-12-01T00:30:38.511Z,6.07
2022-12-01T00:35:39.970Z,6.82
2022-12-01T00:40:41.400Z,6.90
2022-12-01T00:45:43.354Z,6.53
2022-12-01T00:50:45.733Z,6.90
2022-12-01T00:55:47.624Z,5.75
2022-12-01T01:00:49.622Z,6.53
2022-12-01T01:05:51.168Z,5.40
2022-12-01T01:10:52.624Z,5.93
2022-12-01T01:16:03.303Z,5.75
2022-12-01T01:21:11.154Z,7.28
2022-12-01T01:26:30.871Z,7.90
2022-12-01T01:31:32.372Z,8.07
2022-12-01T01:36:33.911Z,7.85
2022-12-01T01:41:35.407Z,8.02
2022-12-01T01:46:37.407Z,7.45
2022-12-01T01:51:43.456Z,7.88
2022-12-01T01:56:46.226Z,9.43
2022-12-01T02:01:55.309Z,9.80
2022-12-01T02:06:56.911Z,9.35
2022-12-01T02:12:03.508Z,9.00
2022-12-01T02:17:31.782Z,11.77
2022-12-01T02:23:15.348Z,11.55
2022-12-01T02:28:44.781Z,9.50
2022-12-01T02:34:23.264Z,12.90
2022-12-01T02:40:03.705Z,10.75
2022-12-01T02:45:11.406Z,10.32
2022-12-01T02:50:13.585Z,10.00
2022-12-01T02:55:15.062Z,13.55
2022-12-01T03:00:17.953Z,13.68
2022-12-01T03:05:38.190Z,13.15
2022-12-01T03:10:57.818Z,11.65
2022-12-01T03:16:21.710Z,11.07
2022-12-01T03:21:32.090Z,10.88
2022-12-01T03:26:36.375Z,10.00
2022-12-01T03:31:44.856Z,9.98
2022-12-01T03:36:52.678Z,10.70
2022-12-01T03:41:59.856Z,10.98
2022-12-01T03:47:09.129Z,12.45
2022-12-01T03:52:20.374Z,11.57
2022-12-01T03:57:29.773Z,12.25
2022-12-01T04:02:31.945Z,11.50
2022-12-01T04:07:33.586Z,11.43
2022-12-01T04:12:35.144Z,12.63
2022-12-01T04:17:36.969Z,11.18
2022-12-01T04:22:38.572Z,11.88
2022-12-01T04:27:40.253Z,12.57
2022-12-01T04:32:43.520Z,12.63
2022-12-01T04:37:44.949Z,13.30
2022-12-01T04:42:46.365Z,12.38
2022-12-01T04:47:47.792Z,12.43
2022-12-01T04:52:49.417Z,12.00
2022-12-01T04:57:50.850Z,13.18
2022-12-01T05:02:52.350Z,12.65
2022-12-01T05:07:53.945Z,12.60
2022-12-01T05:12:57.730Z,14.00
2022-12-01T05:17:59.410Z,14.02
2022-12-01T05:23:05.732Z,12.20
2022-12-01T05:28:07.718Z,13.27
2022-12-01T05:33:09.255Z,13.70
2022-12-01T05:38:11.789Z,14.35
2022-12-01T05:43:13.234Z,14.55
2022-12-01T05:48:14.690Z,13.90
2022-12-01T05:53:16.810Z,13.75
2022-12-01T05:58:18.250Z,13.90
2022-12-01T06:03:19.723Z,14.82
2022-12-01T06:08:21.199Z,13.93
2022-12-01T06:13:22.973Z,12.27
2022-12-01T06:18:25.668Z,13.90
2022-12-01T06:23:30.330Z,13.68
2022-12-01T06:28:32.372Z,12.68
2022-12-01T06:33:34.138Z,14.43
2022-12-01T06:38:37.128Z,13.25
2022-12-01T06:43:38.755Z,13.70
2022-12-01T06:48:40.234Z,13.23
2022-12-01T06:53:41.691Z,15.05
2022-12-01T06:58:43.165Z,13.40
2022-12-01T07:03:49.618Z,11.98
2022-12-01T07:08:52.429Z,12.25
2022-12-01T07:13:57.091Z,13.52
2022-12-01T07:18:59.974Z,12.68
2022-12-01T07:24:03.115Z,11.88
2022-12-01T07:29:04.605Z,11.85
2022-12-01T07:34:06.445Z,11.32
2022-12-01T07:39:08.776Z,12.20
2022-12-01T07:44:11.147Z,12.13
2022-12-01T07:49:15.005Z,10.82
2022-12-01T07:54:17.643Z,12.23
2022-12-01T07:59:19.131Z,11.02
2022-12-01T08:04:20.565Z,11.48
2022-12-01T08:09:22.036Z,12.32
2022-12-01T08:14:23.488Z,11.07
2022-12-01T08:19:25.859Z,11.02
2022-12-01T08:24:27.342Z,12.70
2022-12-01T08:29:28.831Z,10.35
2022-12-01T08:34:30.364Z,11.93
2022-12-01T08:39:31.857Z,11.82
2022-12-01T08:44:33.308Z,11.52
2022-12-01T08:49:35.107Z,10.52
2022-12-01T08:54:36.779Z,11.00
2022-12-01T08:59:38.533Z,9.10
2022-12-01T09:04:40.019Z,10.88
2022-12-01T09:09:41.972Z,9.80
2022-12-01T09:14:49.528Z,10.13
2022-12-01T09:19:51.307Z,10.45
2022-12-01T09:24:53.079Z,10.25
2022-12-01T09:29:54.532Z,10.77
2022-12-01T09:34:55.977Z,12.45
2022-12-01T09:39:57.425Z,11.60
2022-12-01T09:45:02.724Z,10.52
2022-12-01T09:50:06.598Z,10.70
2022-12-01T09:55:16.322Z,10.90
2022-12-01T10:00:24.791Z,10.87
2022-12-01T10:05:31.756Z,10.50
2022-12-01T10:10:46.365Z,11.10
2022-12-01T10:15:53.880Z,10.25
2022-12-01T10:21:23.525Z,11.40
2022-12-01T10:26:43.298Z,10.18
2022-12-01T10:31:52.646Z,10.77
2022-12-01T10:36:57.253Z,10.45
2022-12-01T10:42:13.775Z,9.07
2022-12-01T10:47:21.738Z,11.63
2022-12-01T10:52:38.564Z,11.50
2022-12-01T10:58:11.522Z,10.93
2022-12-01T11:16:08.112Z,10.67
2022-12-01T11:27:42.532Z,10.48
2022-12-01T11:32:29.194Z,9.57
2022-12-01T11:37:38.174Z,10.48
2022-12-01T11:42:41.457Z,11.10
2022-12-01T11:48:06.318Z,11.23
2022-12-01T11:53:39.215Z,10.95
2022-12-01T11:58:44.654Z,10.38
2022-12-01T12:04:01.963Z,11.77
2022-12-01T12:09:21.854Z,10.73
2022-12-01T12:14:40.000Z,10.83
2022-12-01T12:20:07.672Z,11.13
2022-12-01T12:25:27.627Z,10.95
2022-12-01T12:30:31.461Z,12.27
2022-12-01T12:36:01.144Z,12.93
2022-12-01T12:41:41.583Z,10.80
2022-12-01T12:47:03.666Z,10.40
2022-12-01T12:52:12.596Z,10.82
2022-12-01T12:57:59.774Z,11.43
2022-12-01T13:03:34.042Z,11.48
2022-12-01T13:08:41.274Z,11.68
2022-12-01T13:13:55.028Z,9.98
2022-12-01T13:19:07.786Z,10.27
2022-12-01T13:24:26.239Z,9.15
2022-12-01T13:29:42.449Z,8.70
2022-12-01T13:34:50.903Z,9.43
2022-12-01T13:39:59.741Z,9.02
2022-12-01T13:45:08.377Z,10.10
2022-12-01T13:50:43.102Z,9.93
2022-12-01T13:56:06.872Z,10.18
2022-12-01T14:01:26.618Z,10.27
2022-12-01T14:06:32.981Z,8.17
2022-12-01T14:11:36.603Z,9.23
2022-12-01T14:17:12.526Z,8.98
2022-12-01T14:22:54.554Z,8.77
2022-12-01T14:28:13.294Z,9.48
2022-12-01T14:38:54.771Z,10.48
2022-12-01T14:44:15.586Z,9.73
2022-12-01T14:49:47.198Z,9.63
2022-12-01T14:55:14.439Z,11.52
2022-12-01T15:06:06.233Z,11.95
2022-12-01T15:11:21.889Z,11.10
2022-12-01T15:16:32.122Z,10.93
2022-12-01T15:21:36.448Z,12.25
2022-12-01T15:26:47.416Z,12.20
2022-12-01T15:31:56.729Z,11.35
2022-12-01T15:37:02.640Z,12.82
2022-12-01T15:42:13.745Z,12.30
2022-12-01T15:47:50.175Z,11.88
2022-12-01T15:52:54.131Z,9.70
2022-12-01T15:57:58.353Z,8.65
2022-12-01T16:03:03.372Z,9.98
2022-12-01T16:08:20.091Z,11.70
2022-12-01T16:13:47.466Z,9.13
2022-12-01T16:19:04.249Z,8.55
2022-12-01T16:24:06.419Z,10.23
2022-12-01T16:29:23.928Z,10.45
2022-12-01T16:34:45.292Z,9.40
2022-12-01T16:39:48.119Z,9.90
2022-12-01T16:44:51.504Z,9.68
2022-12-01T16:49:55.862Z,9.13
2022-12-01T16:55:02.535Z,9.50
2022-12-01T17:00:04.596Z,10.10
2022-12-01T17:05:06.493Z,9.75
2022-12-01T17:10:08.661Z,12.80
2022-12-01T17:15:10.636Z,11.30
2022-12-01T17:20:12.985Z,10.52
2022-12-01T17:25:14.617Z,15.05
2022-12-01T17:30:16.409Z,10.80
2022-12-01T17:35:18.269Z,12.55
2022-12-01T17:40:20.019Z,15.27
2022-12-01T18:03:33.881Z,9.55
2022-12-01T18:08:50.226Z,10.35
2022-12-01T18:20:43.710Z,10.95
2022-12-01T18:25:19.043Z,9.40
2022-12-01T18:35:59.679Z,10.05
2022-12-01T18:41:12.564Z,9.05
2022-12-01T18:47:17.562Z,9.98
2022-12-01T18:52:07.810Z,11.50
2022-12-01T18:57:18.264Z,10.82
2022-12-01T19:07:57.669Z,10.77
2022-12-01T19:12:59.220Z,12.65
2022-12-01T19:18:00.937Z,12.30
2022-12-01T19:23:02.395Z,14.05
2022-12-01T19:28:03.919Z,12.32
2022-12-01T19:33:05.588Z,12.43
2022-12-01T19:38:07.511Z,13.18
2022-12-01T19:43:09.140Z,12.07
2022-12-01T19:48:10.559Z,11.52
2022-12-01T19:53:12.000Z,13.02
2022-12-01T19:58:13.508Z,11.93
2022-12-01T20:03:14.941Z,11.70
2022-12-01T20:08:16.384Z,11.93
2022-12-01T20:13:17.794Z,11.82
2022-12-01T20:18:19.386Z,13.48
2022-12-01T20:23:20.805Z,12.85
2022-12-01T20:28:22.285Z,12.35
2022-12-01T20:33:24.861Z,16.90
2022-12-01T20:38:27.789Z,14.32
2022-12-01T20:43:29.439Z,12.98
2022-12-01T20:48:31.668Z,14.70
2022-12-01T20:53:33.190Z,16.90
2022-12-01T20:58:37.736Z,15.05
2022-12-01T21:03:41.980Z,17.42
2022-12-01T21:08:45.033Z,16.02
2022-12-01T21:13:46.942Z,15.00
2022-12-01T21:18:55.461Z,16.45
2022-12-01T21:23:59.892Z,13.82
2022-12-01T21:29:02.705Z,14.07
2022-12-01T21:34:13.882Z,13.68
2022-12-01T21:39:21.434Z,15.25
2022-12-01T21:44:29.892Z,16.52
2022-12-01T21:49:38.483Z,15.75
2022-12-01T21:54:39.891Z,14.55
2022-12-01T21:59:41.281Z,15.88
2022-12-01T22:04:43.344Z,14.63
2022-12-01T22:09:44.755Z,16.70
2022-12-01T22:14:46.167Z,16.95
2022-12-01T22:20:02.478Z,15.48
2022-12-01T22:25:25.258Z,16.25
2022-12-01T22:30:26.676Z,14.90
2022-12-01T22:35:32.900Z,14.88
2022-12-01T22:40:45.673Z,15.77
2022-12-01T22:45:49.373Z,16.05
2022-12-01T22:50:52.052Z,16.67
2022-12-01T22:55:55.712Z,16.38
2022-12-01T23:01:22.306Z,16.58
2022-12-01T23:06:54.930Z,18.55
2022-12-01T23:12:00.679Z,17.52
2022-12-01T23:17:07.744Z,16.80
2022-12-01T23:22:10.181Z,17.08
2022-12-01T23:27:11.980Z,18.85
2022-12-01T23:32:13.533Z,17.92
2022-12-01T23:37:31.600Z,17.38
2022-12-01T23:42:33.111Z,18.73
2022-12-01T23:47:34.643Z,20.92
2022-12-01T23:52:36.819Z,21.27
2022-12-01T23:57:38.299Z,18.42
